sensor_id;sensor_type;location;lat;lon;timestamp;pressure;altitude;pressure_sealevel;temperature;humidity
30724;BME280;17473;52.286;20.930;2023-12-28T00:01:10;100678.56;;;1.40;100.00
30724;BME280;17473;52.286;20.930;2023-12-28T00:03:37;100663.88;;;1.40;100.00
30724;BME280;17473;52.286;20.930;2023-12-28T00:06:05;100657.19;;;1.44;100.00
30724;BME280;17473;52.286;20.930;2023-12-28T00:08:32;100655.03;;;1.38;100.00
30724;BME280;17473;52.286;20.930;2023-12-28T00:10:59;100671.34;;;1.48;100.00
30724;BME280;17473;52.286;20.930;2023-12-28T00:13:27;100660.50;;;1.53;100.00
30724;BME280;17473;52.286;20.930;2023-12-28T00:15:54;100661.47;;;1.44;100.00
30724;BME280;17473;52.286;20.930;2023-12-28T00:18:21;100649.41;;;1.44;100.00
30724;BME280;17473;52.286;20.930;2023-12-28T00:20:50;100645.56;;;1.63;100.00
30724;BME280;17473;52.286;20.930;2023-12-28T00:23:17;100640.22;;;1.49;100.00
30724;BME280;17473;52.286;20.930;2023-12-28T00:25:47;100611.81;;;1.64;100.00
30724;BME280;17473;52.286;20.930;2023-12-28T00:28:14;100607.75;;;1.56;100.00
30724;BME280;17473;52.286;20.930;2023-12-28T00:30:41;100590.75;;;1.49;100.00
30724;BME280;17473;52.286;20.930;2023-12-28T00:33:08;100587.03;;;1.46;100.00
30724;BME280;17473;52.286;20.930;2023-12-28T00:35:36;100592.81;;;1.53;100.00
30724;BME280;17473;52.286;20.930;2023-12-28T00:38:03;100597.09;;;1.53;100.00
30724;BME280;17473;52.286;20.930;2023-12-28T00:40:30;100598.72;;;1.51;100.00
30724;BME280;17473;52.286;20.930;2023-12-28T00:42:57;100601.06;;;1.60;100.00
30724;BME280;17473;52.286;20.930;2023-12-28T00:45:24;100622.03;;;1.61;100.00
30724;BME280;17473;52.286;20.930;2023-12-28T00:47:52;100628.03;;;1.60;100.00
30724;BME280;17473;52.286;20.930;2023-12-28T00:50:23;100636.97;;;1.64;100.00
30724;BME280;17473;52.286;20.930;2023-12-28T00:52:50;100629.81;;;1.73;100.00
30724;BME280;17473;52.286;20.930;2023-12-28T00:55:17;100628.03;;;1.60;100.00
30724;BME280;17473;52.286;20.930;2023-12-28T00:57:44;100616.47;;;1.68;100.00
30724;BME280;17473;52.286;20.930;2023-12-28T01:00:12;100619.06;;;1.68;100.00
30724;BME280;17473;52.286;20.930;2023-12-28T01:02:39;100632.88;;;1.67;100.00
30724;BME280;17473;52.286;20.930;2023-12-28T01:05:06;100625.88;;;1.54;100.00
30724;BME280;17473;52.286;20.930;2023-12-28T01:07:34;100622.13;;;1.39;100.00
30724;BME280;17473;52.286;20.930;2023-12-28T01:10:01;100608.09;;;1.49;100.00
30724;BME280;17473;52.286;20.930;2023-12-28T01:12:28;100612.63;;;1.51;100.00
30724;BME280;17473;52.286;20.930;2023-12-28T01:14:55;100618.72;;;1.40;100.00
30724;BME280;17473;52.286;20.930;2023-12-28T01:17:22;100605.03;;;1.43;100.00
30724;BME280;17473;52.286;20.930;2023-12-28T01:19:49;100595.88;;;1.48;100.00
30724;BME280;17473;52.286;20.930;2023-12-28T01:22:17;100597.78;;;1.38;100.00
30724;BME280;17473;52.286;20.930;2023-12-28T01:24:47;100578.09;;;1.30;100.00
30724;BME280;17473;52.286;20.930;2023-12-28T01:27:16;100584.53;;;1.23;100.00
30724;BME280;17473;52.286;20.930;2023-12-28T01:29:44;100588.97;;;1.24;100.00
30724;BME280;17473;52.286;20.930;2023-12-28T01:32:11;100580.47;;;1.15;100.00
30724;BME280;17473;52.286;20.930;2023-12-28T01:34:40;100577.06;;;1.16;100.00
30724;BME280;17473;52.286;20.930;2023-12-28T01:37:08;100561.47;;;1.16;100.00
30724;BME280;17473;52.286;20.930;2023-12-28T01:39:35;100568.03;;;1.11;100.00
30724;BME280;17473;52.286;20.930;2023-12-28T01:42:03;100578.09;;;1.18;100.00
30724;BME280;17473;52.286;20.930;2023-12-28T01:44:31;100568.94;;;1.12;100.00
30724;BME280;17473;52.286;20.930;2023-12-28T01:46:59;100558.75;;;1.15;100.00
30724;BME280;17473;52.286;20.930;2023-12-28T01:49:26;100546.53;;;1.14;100.00
30724;BME280;17473;52.286;20.930;2023-12-28T01:51:54;100535.09;;;1.23;100.00
30724;BME280;17473;52.286;20.930;2023-12-28T01:54:22;100529.22;;;1.26;100.00
30724;BME280;17473;52.286;20.930;2023-12-28T01:56:49;100523.91;;;1.24;100.00
30724;BME280;17473;52.286;20.930;2023-12-28T01:59:16;100529.81;;;1.22;100.00
30724;BME280;17473;52.286;20.930;2023-12-28T02:01:45;100525.38;;;1.21;100.00
30724;BME280;17473;52.286;20.930;2023-12-28T02:04:13;100510.66;;;1.21;100.00
30724;BME280;17473;52.286;20.930;2023-12-28T02:06:41;100499.81;;;1.27;100.00
30724;BME280;17473;52.286;20.930;2023-12-28T02:09:08;100484.81;;;1.11;100.00
30724;BME280;17473;52.286;20.930;2023-12-28T02:11:35;100484.19;;;1.27;100.00
30724;BME280;17473;52.286;20.930;2023-12-28T02:14:02;100466.78;;;1.26;100.00
30724;BME280;17473;52.286;20.930;2023-12-28T02:16:36;100460.22;;;1.31;100.00
30724;BME280;17473;52.286;20.930;2023-12-28T02:19:25;100461.09;;;1.44;100.00
30724;BME280;17473;52.286;20.930;2023-12-28T02:21:56;100464.63;;;1.32;100.00
30724;BME280;17473;52.286;20.930;2023-12-28T02:24:24;100462.56;;;1.40;100.00
30724;BME280;17473;52.286;20.930;2023-12-28T02:26:51;100470.63;;;1.31;100.00
30724;BME280;17473;52.286;20.930;2023-12-28T02:29:19;100459.78;;;1.25;100.00
30724;BME280;17473;52.286;20.930;2023-12-28T02:31:58;100458.41;;;1.30;100.00
30724;BME280;17473;52.286;20.930;2023-12-28T02:34:34;100444.97;;;1.24;100.00
30724;BME280;17473;52.286;20.930;2023-12-28T02:37:05;100455.69;;;1.40;100.00
30724;BME280;17473;52.286;20.930;2023-12-28T02:39:32;100454.75;;;1.40;100.00
30724;BME280;17473;52.286;20.930;2023-12-28T02:42:00;100441.06;;;1.54;100.00
30724;BME280;17473;52.286;20.930;2023-12-28T02:44:27;100435.16;;;1.57;100.00
30724;BME280;17473;52.286;20.930;2023-12-28T02:46:54;100436.72;;;1.55;100.00
30724;BME280;17473;52.286;20.930;2023-12-28T02:49:22;100429.06;;;1.56;100.00
30724;BME280;17473;52.286;20.930;2023-12-28T02:51:49;100435.94;;;1.56;100.00
30724;BME280;17473;52.286;20.930;2023-12-28T02:54:16;100440.25;;;1.55;100.00
30724;BME280;17473;52.286;20.930;2023-12-28T02:56:44;100430.72;;;1.56;100.00
30724;BME280;17473;52.286;20.930;2023-12-28T02:59:11;100414.09;;;1.54;100.00
30724;BME280;17473;52.286;20.930;2023-12-28T03:01:38;100407.69;;;1.49;100.00
30724;BME280;17473;52.286;20.930;2023-12-28T03:04:05;100412.50;;;1.56;100.00
30724;BME280;17473;52.286;20.930;2023-12-28T03:06:32;100411.31;;;1.51;100.00
30724;BME280;17473;52.286;20.930;2023-12-28T03:08:59;100399.72;;;1.59;100.00
30724;BME280;17473;52.286;20.930;2023-12-28T03:11:26;100384.44;;;1.64;100.00
30724;BME280;17473;52.286;20.930;2023-12-28T03:13:54;100389.19;;;1.58;100.00
30724;BME280;17473;52.286;20.930;2023-12-28T03:16:21;100379.91;;;1.61;100.00
30724;BME280;17473;52.286;20.930;2023-12-28T03:18:48;100380.25;;;1.54;100.00
30724;BME280;17473;52.286;20.930;2023-12-28T03:21:15;100374.72;;;1.61;100.00
30724;BME280;17473;52.286;20.930;2023-12-28T03:23:42;100379.41;;;1.67;100.00
30724;BME280;17473;52.286;20.930;2023-12-28T03:26:10;100371.72;;;1.68;100.00
30724;BME280;17473;52.286;20.930;2023-12-28T03:28:37;100365.59;;;1.68;100.00
30724;BME280;17473;52.286;20.930;2023-12-28T03:31:04;100360.13;;;1.77;100.00
30724;BME280;17473;52.286;20.930;2023-12-28T03:33:31;100356.25;;;1.83;100.00
30724;BME280;17473;52.286;20.930;2023-12-28T03:35:58;100358.16;;;1.86;99.65
30724;BME280;17473;52.286;20.930;2023-12-28T03:38:27;100365.06;;;1.85;99.33
30724;BME280;17473;52.286;20.930;2023-12-28T03:40:55;100355.63;;;1.74;99.14
30724;BME280;17473;52.286;20.930;2023-12-28T03:43:22;100342.53;;;1.86;98.21
30724;BME280;17473;52.286;20.930;2023-12-28T03:45:49;100330.22;;;1.83;97.60
30724;BME280;17473;52.286;20.930;2023-12-28T03:48:16;100337.03;;;1.95;97.60
30724;BME280;17473;52.286;20.930;2023-12-28T03:50:43;100347.75;;;1.86;97.19
30724;BME280;17473;52.286;20.930;2023-12-28T03:53:10;100344.50;;;1.77;96.74
30724;BME280;17473;52.286;20.930;2023-12-28T03:55:37;100346.00;;;1.73;96.94
30724;BME280;17473;52.286;20.930;2023-12-28T03:58:05;100338.13;;;1.85;95.89
30724;BME280;17473;52.286;20.930;2023-12-28T04:00:35;100320.69;;;1.84;95.32
30724;BME280;17473;52.286;20.930;2023-12-28T04:03:03;100313.69;;;1.83;94.84
30724;BME280;17473;52.286;20.930;2023-12-28T04:05:30;100312.31;;;1.88;93.13
30724;BME280;17473;52.286;20.930;2023-12-28T04:07:57;100309.63;;;2.00;92.31
30724;BME280;17473;52.286;20.930;2023-12-28T04:10:32;100310.31;;;2.11;90.75
30724;BME280;17473;52.286;20.930;2023-12-28T04:12:59;100302.19;;;2.06;90.67
30724;BME280;17473;52.286;20.930;2023-12-28T04:15:27;100313.94;;;2.13;89.83
30724;BME280;17473;52.286;20.930;2023-12-28T04:17:54;100305.31;;;2.14;89.24
30724;BME280;17473;52.286;20.930;2023-12-28T04:20:23;100314.13;;;2.02;90.12
30724;BME280;17473;52.286;20.930;2023-12-28T04:22:50;100292.97;;;1.98;90.02
30724;BME280;17473;52.286;20.930;2023-12-28T04:25:17;100301.69;;;1.98;89.36
30724;BME280;17473;52.286;20.930;2023-12-28T04:27:44;100298.09;;;1.96;89.12
30724;BME280;17473;52.286;20.930;2023-12-28T04:30:12;100283.88;;;2.05;88.76
30724;BME280;17473;52.286;20.930;2023-12-28T04:32:40;100269.13;;;2.05;88.15
30724;BME280;17473;52.286;20.930;2023-12-28T04:35:07;100270.06;;;2.06;88.61
30724;BME280;17473;52.286;20.930;2023-12-28T04:37:34;100271.22;;;1.97;88.80
30724;BME280;17473;52.286;20.930;2023-12-28T04:40:03;100267.63;;;2.09;88.51
30724;BME280;17473;52.286;20.930;2023-12-28T04:42:30;100274.44;;;1.93;88.76
30724;BME280;17473;52.286;20.930;2023-12-28T04:44:58;100260.50;;;1.79;89.50
30724;BME280;17473;52.286;20.930;2023-12-28T04:47:25;100255.41;;;1.94;89.41
30724;BME280;17473;52.286;20.930;2023-12-28T04:49:52;100253.28;;;2.02;88.77
30724;BME280;17473;52.286;20.930;2023-12-28T04:52:19;100240.53;;;1.80;89.75
30724;BME280;17473;52.286;20.930;2023-12-28T04:54:47;100239.25;;;1.73;90.28
30724;BME280;17473;52.286;20.930;2023-12-28T04:57:14;100230.66;;;1.74;90.68
30724;BME280;17473;52.286;20.930;2023-12-28T04:59:41;100222.94;;;1.76;90.41
30724;BME280;17473;52.286;20.930;2023-12-28T05:02:08;100222.63;;;1.71;90.48
30724;BME280;17473;52.286;20.930;2023-12-28T05:04:39;100211.69;;;1.63;91.14
30724;BME280;17473;52.286;20.930;2023-12-28T05:07:06;100205.50;;;1.61;90.74
30724;BME280;17473;52.286;20.930;2023-12-28T05:09:33;100203.88;;;1.63;90.69
30724;BME280;17473;52.286;20.930;2023-12-28T05:12:01;100206.38;;;1.62;90.79
30724;BME280;17473;52.286;20.930;2023-12-28T05:14:28;100196.19;;;1.65;90.69
30724;BME280;17473;52.286;20.930;2023-12-28T05:16:55;100196.69;;;1.72;90.70
30724;BME280;17473;52.286;20.930;2023-12-28T05:19:22;100198.09;;;1.67;90.72
30724;BME280;17473;52.286;20.930;2023-12-28T05:21:50;100189.09;;;1.76;90.47
30724;BME280;17473;52.286;20.930;2023-12-28T05:24:17;100184.47;;;1.58;91.52
30724;BME280;17473;52.286;20.930;2023-12-28T05:26:44;100181.47;;;1.65;91.12
30724;BME280;17473;52.286;20.930;2023-12-28T05:29:11;100179.56;;;1.63;91.13
30724;BME280;17473;52.286;20.930;2023-12-28T05:31:38;100154.72;;;1.54;91.26
30724;BME280;17473;52.286;20.930;2023-12-28T05:34:06;100138.91;;;1.51;91.86
30724;BME280;17473;52.286;20.930;2023-12-28T05:36:33;100146.13;;;1.55;92.04
30724;BME280;17473;52.286;20.930;2023-12-28T05:39:00;100134.97;;;1.45;92.21
30724;BME280;17473;52.286;20.930;2023-12-28T05:41:27;100130.22;;;1.51;92.12
30724;BME280;17473;52.286;20.930;2023-12-28T05:43:54;100128.09;;;1.59;91.97
30724;BME280;17473;52.286;20.930;2023-12-28T05:46:21;100122.59;;;1.40;92.55
30724;BME280;17473;52.286;20.930;2023-12-28T05:48:49;100122.19;;;1.48;92.71
30724;BME280;17473;52.286;20.930;2023-12-28T05:51:16;100106.56;;;1.48;92.32
30724;BME280;17473;52.286;20.930;2023-12-28T05:53:43;100131.88;;;1.50;92.84
30724;BME280;17473;52.286;20.930;2023-12-28T05:56:10;100140.19;;;1.45;93.03
30724;BME280;17473;52.286;20.930;2023-12-28T05:58:37;100144.00;;;1.50;93.00
30724;BME280;17473;52.286;20.930;2023-12-28T06:01:05;100136.38;;;1.53;92.56
30724;BME280;17473;52.286;20.930;2023-12-28T06:03:32;100126.81;;;1.52;92.80
30724;BME280;17473;52.286;20.930;2023-12-28T06:06:00;100140.91;;;1.55;92.76
30724;BME280;17473;52.286;20.930;2023-12-28T06:08:27;100141.81;;;1.56;92.85
30724;BME280;17473;52.286;20.930;2023-12-28T06:10:54;100135.19;;;1.48;92.90
30724;BME280;17473;52.286;20.930;2023-12-28T06:13:21;100124.47;;;1.43;93.31
30724;BME280;17473;52.286;20.930;2023-12-28T06:15:48;100138.91;;;1.51;93.36
30724;BME280;17473;52.286;20.930;2023-12-28T06:18:15;100134.97;;;1.31;94.21
30724;BME280;17473;52.286;20.930;2023-12-28T06:20:43;100133.19;;;1.44;93.75
30724;BME280;17473;52.286;20.930;2023-12-28T06:23:10;100134.19;;;1.46;93.68
30724;BME280;17473;52.286;20.930;2023-12-28T06:25:37;100130.41;;;1.40;93.96
30724;BME280;17473;52.286;20.930;2023-12-28T06:28:05;100141.50;;;1.38;94.31
30724;BME280;17473;52.286;20.930;2023-12-28T06:30:32;100145.78;;;1.37;94.66
30724;BME280;17473;52.286;20.930;2023-12-28T06:32:59;100136.91;;;1.47;94.50
30724;BME280;17473;52.286;20.930;2023-12-28T06:35:26;100133.19;;;1.44;94.59
30724;BME280;17473;52.286;20.930;2023-12-28T06:37:53;100119.28;;;1.43;94.43
30724;BME280;17473;52.286;20.930;2023-12-28T06:40:20;100128.41;;;1.50;94.29
30724;BME280;17473;52.286;20.930;2023-12-28T06:42:47;100128.09;;;1.45;94.34
30724;BME280;17473;52.286;20.930;2023-12-28T06:45:15;100109.50;;;1.39;95.17
30724;BME280;17473;52.286;20.930;2023-12-28T06:47:42;100101.47;;;1.36;95.10
30724;BME280;17473;52.286;20.930;2023-12-28T06:50:09;100097.44;;;1.41;95.36
30724;BME280;17473;52.286;20.930;2023-12-28T06:52:37;100099.88;;;1.38;95.20
30724;BME280;17473;52.286;20.930;2023-12-28T06:55:04;100104.56;;;1.44;95.17
30724;BME280;17473;52.286;20.930;2023-12-28T06:57:31;100102.34;;;1.36;95.73
30724;BME280;17473;52.286;20.930;2023-12-28T06:59:58;100107.06;;;1.42;95.95
30724;BME280;17473;52.286;20.930;2023-12-28T07:02:28;100098.47;;;1.43;95.86
30724;BME280;17473;52.286;20.930;2023-12-28T07:04:55;100092.44;;;1.58;95.43
30724;BME280;17473;52.286;20.930;2023-12-28T07:07:22;100107.75;;;1.53;95.85
30724;BME280;17473;52.286;20.930;2023-12-28T07:09:50;100091.25;;;1.52;96.01
30724;BME280;17473;52.286;20.930;2023-12-28T07:12:17;100085.47;;;1.56;96.21
30724;BME280;17473;52.286;20.930;2023-12-28T07:14:47;100081.34;;;1.60;95.76
30724;BME280;17473;52.286;20.930;2023-12-28T07:17:14;100080.75;;;1.78;95.54
30724;BME280;17473;52.286;20.930;2023-12-28T07:19:44;100083.34;;;1.78;95.17
30724;BME280;17473;52.286;20.930;2023-12-28T07:22:11;100086.53;;;1.74;95.37
30724;BME280;17473;52.286;20.930;2023-12-28T07:24:39;100079.44;;;1.71;95.81
30724;BME280;17473;52.286;20.930;2023-12-28T07:27:06;100071.28;;;1.93;95.04
30724;BME280;17473;52.286;20.930;2023-12-28T07:29:33;100069.50;;;1.92;95.04
30724;BME280;17473;52.286;20.930;2023-12-28T07:32:00;100073.84;;;2.07;94.91
30724;BME280;17473;52.286;20.930;2023-12-28T07:34:27;100063.72;;;2.11;94.53
30724;BME280;17473;52.286;20.930;2023-12-28T07:36:54;100074.25;;;2.13;94.36
30724;BME280;17473;52.286;20.930;2023-12-28T07:39:22;100061.69;;;2.21;94.74
30724;BME280;17473;52.286;20.930;2023-12-28T07:41:49;100060.06;;;2.51;93.71
30724;BME280;17473;52.286;20.930;2023-12-28T07:44:16;100059.91;;;2.48;93.45
30724;BME280;17473;52.286;20.930;2023-12-28T07:46:44;100045.66;;;2.71;92.52
30724;BME280;17473;52.286;20.930;2023-12-28T07:49:11;100045.56;;;2.85;91.76
30724;BME280;17473;52.286;20.930;2023-12-28T07:51:38;100053.00;;;3.23;90.17
30724;BME280;17473;52.286;20.930;2023-12-28T07:54:06;100068.44;;;3.65;88.13
30724;BME280;17473;52.286;20.930;2023-12-28T07:56:33;100076.03;;;3.92;86.97
30724;BME280;17473;52.286;20.930;2023-12-28T07:59:00;100052.56;;;4.25;85.42
30724;BME280;17473;52.286;20.930;2023-12-28T08:01:27;100066.03;;;4.33;84.27
30724;BME280;17473;52.286;20.930;2023-12-28T08:03:55;100075.75;;;4.19;84.81
30724;BME280;17473;52.286;20.930;2023-12-28T08:06:22;100089.25;;;4.27;84.65
30724;BME280;17473;52.286;20.930;2023-12-28T08:08:49;100096.66;;;4.35;84.84
30724;BME280;17473;52.286;20.930;2023-12-28T08:11:16;100084.81;;;4.42;84.60
30724;BME280;17473;52.286;20.930;2023-12-28T08:13:43;100088.75;;;4.50;83.96
30724;BME280;17473;52.286;20.930;2023-12-28T08:16:11;100067.84;;;4.50;84.71
30724;BME280;17473;52.286;20.930;2023-12-28T08:18:38;100064.78;;;4.26;85.62
30724;BME280;17473;52.286;20.930;2023-12-28T08:21:05;100065.03;;;4.31;85.64
30724;BME280;17473;52.286;20.930;2023-12-28T08:23:32;100062.09;;;4.25;85.91
30724;BME280;17473;52.286;20.930;2023-12-28T08:25:59;100053.63;;;4.29;85.91
30724;BME280;17473;52.286;20.930;2023-12-28T08:28:26;100056.56;;;4.35;85.82
30724;BME280;17473;52.286;20.930;2023-12-28T08:30:55;100039.41;;;4.57;85.23
30724;BME280;17473;52.286;20.930;2023-12-28T08:33:23;100038.69;;;4.43;85.72
30724;BME280;17473;52.286;20.930;2023-12-28T08:35:50;100043.97;;;4.44;85.48
30724;BME280;17473;52.286;20.930;2023-12-28T08:38:17;100046.16;;;4.53;85.62
30724;BME280;17473;52.286;20.930;2023-12-28T08:40:44;100037.59;;;4.56;85.28
30724;BME280;17473;52.286;20.930;2023-12-28T08:43:11;100055.25;;;4.60;85.24
30724;BME280;17473;52.286;20.930;2023-12-28T08:45:39;100048.03;;;4.72;85.32
30724;BME280;17473;52.286;20.930;2023-12-28T08:48:06;100053.41;;;4.75;84.64
30724;BME280;17473;52.286;20.930;2023-12-28T08:50:33;100049.13;;;4.94;85.11
30724;BME280;17473;52.286;20.930;2023-12-28T08:53:01;100037.63;;;4.90;84.56
30724;BME280;17473;52.286;20.930;2023-12-28T08:55:28;100061.06;;;5.05;83.79
30724;BME280;17473;52.286;20.930;2023-12-28T08:57:55;100051.91;;;5.31;83.20
30724;BME280;17473;52.286;20.930;2023-12-28T09:00:22;100036.50;;;5.20;83.02
30724;BME280;17473;52.286;20.930;2023-12-28T09:02:50;100031.03;;;5.33;82.73
30724;BME280;17473;52.286;20.930;2023-12-28T09:05:17;100027.88;;;5.58;81.74
30724;BME280;17473;52.286;20.930;2023-12-28T09:07:44;100036.09;;;5.66;81.23
30724;BME280;17473;52.286;20.930;2023-12-28T09:10:12;100039.69;;;5.86;80.27
30724;BME280;17473;52.286;20.930;2023-12-28T09:12:41;100030.38;;;5.93;80.06
30724;BME280;17473;52.286;20.930;2023-12-28T09:15:09;100021.41;;;5.88;79.46
30724;BME280;17473;52.286;20.930;2023-12-28T09:17:37;100022.47;;;6.09;78.65
30724;BME280;17473;52.286;20.930;2023-12-28T09:20:05;100023.69;;;6.18;78.48
30724;BME280;17473;52.286;20.930;2023-12-28T09:22:33;100031.84;;;6.24;78.07
30724;BME280;17473;52.286;20.930;2023-12-28T09:25:00;100035.75;;;6.34;77.68
30724;BME280;17473;52.286;20.930;2023-12-28T09:27:28;100022.03;;;6.39;77.39
30724;BME280;17473;52.286;20.930;2023-12-28T09:29:55;100007.94;;;6.37;77.71
30724;BME280;17473;52.286;20.930;2023-12-28T09:32:22;100008.59;;;6.32;77.82
30724;BME280;17473;52.286;20.930;2023-12-28T09:34:49;100010.91;;;6.45;77.14
30724;BME280;17473;52.286;20.930;2023-12-28T09:37:16;100018.16;;;6.51;76.81
30724;BME280;17473;52.286;20.930;2023-12-28T09:39:43;100021.16;;;6.39;77.01
30724;BME280;17473;52.286;20.930;2023-12-28T09:42:29;100016.22;;;6.47;77.17
30724;BME280;17473;52.286;20.930;2023-12-28T09:44:57;100021.06;;;6.37;78.64
30724;BME280;17473;52.286;20.930;2023-12-28T09:47:24;100036.28;;;6.45;79.50
30724;BME280;17473;52.286;20.930;2023-12-28T09:49:51;100038.81;;;6.43;81.02
30724;BME280;17473;52.286;20.930;2023-12-28T09:52:19;100033.56;;;6.43;82.35
30724;BME280;17473;52.286;20.930;2023-12-28T09:54:47;100036.53;;;6.31;84.02
30724;BME280;17473;52.286;20.930;2023-12-28T09:57:14;100020.59;;;6.46;84.10
30724;BME280;17473;52.286;20.930;2023-12-28T09:59:41;100029.50;;;6.50;84.79
30724;BME280;17473;52.286;20.930;2023-12-28T10:02:10;100026.50;;;6.42;84.88
30724;BME280;17473;52.286;20.930;2023-12-28T10:04:38;100038.19;;;6.49;85.30
30724;BME280;17473;52.286;20.930;2023-12-28T10:07:05;100033.56;;;6.43;85.23
30724;BME280;17473;52.286;20.930;2023-12-28T10:09:32;100033.13;;;6.34;85.60
30724;BME280;17473;52.286;20.930;2023-12-28T10:12:00;100024.38;;;6.53;85.33
30724;BME280;17473;52.286;20.930;2023-12-28T10:14:27;100036.69;;;6.54;84.98
30724;BME280;17473;52.286;20.930;2023-12-28T10:16:54;100025.81;;;6.66;84.39
30724;BME280;17473;52.286;20.930;2023-12-28T10:19:22;100020.16;;;6.56;84.70
30724;BME280;17473;52.286;20.930;2023-12-28T10:21:52;100023.97;;;6.63;84.00
30724;BME280;17473;52.286;20.930;2023-12-28T10:24:20;100026.50;;;6.62;83.83
30724;BME280;17473;52.286;20.930;2023-12-28T10:26:48;100018.78;;;6.65;83.89
30724;BME280;17473;52.286;20.930;2023-12-28T10:29:16;100033.69;;;6.66;83.09
30724;BME280;17473;52.286;20.930;2023-12-28T10:31:43;100025.88;;;6.67;83.52
30724;BME280;17473;52.286;20.930;2023-12-28T10:34:11;100035.09;;;6.57;83.26
30724;BME280;17473;52.286;20.930;2023-12-28T10:36:40;100028.09;;;6.58;83.38
30724;BME280;17473;52.286;20.930;2023-12-28T10:39:10;100009.13;;;6.85;82.90
30724;BME280;17473;52.286;20.930;2023-12-28T10:41:41;99997.81;;;6.86;82.71
30724;BME280;17473;52.286;20.930;2023-12-28T10:44:12;99998.06;;;6.92;83.31
30724;BME280;17473;52.286;20.930;2023-12-28T10:46:44;100013.81;;;6.92;83.87
30724;BME280;17473;52.286;20.930;2023-12-28T10:49:17;100005.00;;;6.90;84.54
30724;BME280;17473;52.286;20.930;2023-12-28T10:51:52;100005.09;;;6.93;84.67
30724;BME280;17473;52.286;20.930;2023-12-28T10:54:23;100011.13;;;6.91;84.63
30724;BME280;17473;52.286;20.930;2023-12-28T10:57:05;100019.75;;;6.67;86.11
30724;BME280;17473;52.286;20.930;2023-12-28T11:02:21;100033.38;;;6.79;86.22
30724;BME280;17473;52.286;20.930;2023-12-28T11:04:55;100025.09;;;6.70;88.15
30724;BME280;17473;52.286;20.930;2023-12-28T11:07:23;100032.72;;;6.64;90.49
30724;BME280;17473;52.286;20.930;2023-12-28T11:09:53;100035.09;;;6.57;94.22
30724;BME280;17473;52.286;20.930;2023-12-28T11:12:22;100033.56;;;6.63;96.03
30724;BME280;17473;52.286;20.930;2023-12-28T11:14:50;100017.56;;;6.37;98.71
30724;BME280;17473;52.286;20.930;2023-12-28T11:17:21;100022.91;;;6.60;99.58
30724;BME280;17473;52.286;20.930;2023-12-28T11:19:49;100018.56;;;6.60;100.00
30724;BME280;17473;52.286;20.930;2023-12-28T11:22:17;100016.56;;;6.74;100.00
30724;BME280;17473;52.286;20.930;2023-12-28T11:24:44;100018.63;;;6.62;100.00
30724;BME280;17473;52.286;20.930;2023-12-28T11:27:11;100019.16;;;6.53;100.00
30724;BME280;17473;52.286;20.930;2023-12-28T11:29:41;100016.00;;;6.62;100.00
30724;BME280;17473;52.286;20.930;2023-12-28T11:32:09;100017.13;;;6.67;100.00
30724;BME280;17473;52.286;20.930;2023-12-28T11:34:36;100021.34;;;6.63;100.00
30724;BME280;17473;52.286;20.930;2023-12-28T11:37:07;100017.13;;;6.67;100.00
30724;BME280;17473;52.286;20.930;2023-12-28T11:39:36;100028.66;;;6.70;100.00
30724;BME280;17473;52.286;20.930;2023-12-28T11:42:07;100023.75;;;6.58;100.00
30724;BME280;17473;52.286;20.930;2023-12-28T11:44:43;100010.75;;;6.81;100.00
30724;BME280;17473;52.286;20.930;2023-12-28T11:47:25;100009.19;;;6.86;100.00
30724;BME280;17473;52.286;20.930;2023-12-28T11:49:54;100012.97;;;6.72;100.00
30724;BME280;17473;52.286;20.930;2023-12-28T11:52:27;100001.25;;;6.64;100.00
30724;BME280;17473;52.286;20.930;2023-12-28T11:54:54;100001.88;;;6.79;100.00
30724;BME280;17473;52.286;20.930;2023-12-28T11:57:22;99999.34;;;6.81;100.00
30724;BME280;17473;52.286;20.930;2023-12-28T12:00:00;100005.88;;;6.91;100.00
30724;BME280;17473;52.286;20.930;2023-12-28T12:02:28;100003.19;;;6.89;100.00
30724;BME280;17473;52.286;20.930;2023-12-28T12:04:55;100006.94;;;6.74;100.00
30724;BME280;17473;52.286;20.930;2023-12-28T12:07:29;100015.50;;;6.90;100.00
30724;BME280;17473;52.286;20.930;2023-12-28T12:09:58;100008.38;;;6.87;100.00
30724;BME280;17473;52.286;20.930;2023-12-28T12:12:26;100006.38;;;6.82;100.00
30724;BME280;17473;52.286;20.930;2023-12-28T12:14:54;99996.97;;;6.87;100.00
30724;BME280;17473;52.286;20.930;2023-12-28T12:17:24;100020.63;;;7.08;100.00
30724;BME280;17473;52.286;20.930;2023-12-28T12:19:52;100009.28;;;7.09;100.00
30724;BME280;17473;52.286;20.930;2023-12-28T12:22:23;100014.59;;;7.11;100.00
30724;BME280;17473;52.286;20.930;2023-12-28T12:24:56;100011.56;;;7.01;100.00
30724;BME280;17473;52.286;20.930;2023-12-28T12:27:26;100017.25;;;6.91;100.00
30724;BME280;17473;52.286;20.930;2023-12-28T12:29:54;100020.09;;;6.96;100.00
30724;BME280;17473;52.286;20.930;2023-12-28T12:32:21;100020.38;;;7.02;100.00
30724;BME280;17473;52.286;20.930;2023-12-28T12:34:49;100018.63;;;7.02;100.00
30724;BME280;17473;52.286;20.930;2023-12-28T12:37:18;100016.63;;;6.97;100.00
30724;BME280;17473;52.286;20.930;2023-12-28T12:39:45;100011.66;;;7.03;100.00
30724;BME280;17473;52.286;20.930;2023-12-28T12:42:15;100007.03;;;6.97;100.00
30724;BME280;17473;52.286;20.930;2023-12-28T12:44:43;100010.81;;;7.04;100.00
30724;BME280;17473;52.286;20.930;2023-12-28T12:47:13;100008.25;;;7.05;100.00
30724;BME280;17473;52.286;20.930;2023-12-28T12:49:40;100003.59;;;6.98;100.00
30724;BME280;17473;52.286;20.930;2023-12-28T12:52:10;100004.72;;;7.05;100.00